Minerva Concert — SVWC — position and weather

sailwx.info

Track history (hours):
 
Tides and Currents Weather Stations Pressure Air Temp Water Temp Dewpoint Dewpoint Depression Visibility Wind Speed Wind Dir Waves Ship Positions

Minerva Concert

Last reported at 2014-Nov-25 21:33 UTC. Time now 2014-Nov-25 21:52 UTC.
Position N 51°24' E 003°09'.

Length 241 m; draft 9.2 m.

Type: Tanker. MMSI: 240110000.

Date/timePositionNaut miles runAvg speedWind from/ knotsBaromVisibWave heightAir tempDewpointWater temp
2014-Nov-25 21:33N 51°24' E 003°09'1010.2
2014-Nov-25 20:33N 51°22' E 002°53'9 8.8
2014-Nov-25 19:33N 51°24' E 002°39'0 0.5
2014-Nov-25 18:32N 51°24' E 002°38'0 0.1
2014-Nov-25 17:26N 51°24' E 002°38'0 0.1
2014-Nov-25 15:29N 51°24' E 002°39'0 0.0
2014-Nov-25 14:23N 51°24' E 002°38'0 0.1
2014-Nov-25 13:29N 51°24' E 002°38'0 0.1
2014-Nov-25 12:11N 51°24' E 002°38'0 0.0
2014-Nov-25 11:23N 51°24' E 002°38'0 0.0
2014-Nov-25 10:23N 51°24' E 002°38'0 0.0
2014-Nov-25 09:17N 51°24' E 002°38'0 0.0
2014-Nov-25 08:23N 51°24' E 002°38'0 0.1
2014-Nov-25 07:32N 51°24' E 002°38'0 0.0
2014-Nov-25 06:17N 51°24' E 002°38'0 0.1
2014-Nov-25 05:20N 51°24' E 002°38'1 0.6
2014-Nov-25 03:32N 51°23' E 002°39'1111.1
2014-Nov-25 02:31N 51°20' E 002°22'1111.4
2014-Nov-25 01:34N 51°21' E 002°04'9 8.9
2014-Nov-25 00:33N 51°30' E 001°59'1211.7
2014-Nov-24 23:33N 51°38' E 002°12'1312.7
2014-Nov-24 22:33N 51°47' E 002°26'45011.2
2014-Nov-23 06:33N 57°49' E 010°11'1212.3
2014-Nov-23 05:33N 57°49' E 010°33'9 9.2
2014-Nov-23 04:33N 57°45' E 010°49'1611.2
2014-Nov-23 03:08N 57°30' E 010°41'3 0.1
2014-Nov-21 22:22N 57°32' E 010°45'1012.0
2014-Nov-21 21:33N 57°31' E 011°03'1211.7
2014-Nov-21 20:33N 57°29' E 011°25'1212.1
2014-Nov-21 19:33N 57°17' E 011°33'7011.0
2014-Nov-21 13:13N 56°09' E 011°14'100 9.0
2014-Nov-21 02:11N 54°30' E 011°34'812.0
2014-Nov-21 01:33N 54°27' E 011°46'1211.7
2014-Nov-21 00:33N 54°26' E 012°07'8510.7
2014-Nov-20 16:33N 55°11' E 014°13'1212.1
2014-Nov-20 15:33N 55°20' E 014°26'1211.9
2014-Nov-20 14:33N 55°28' E 014°41'1212.2
2014-Nov-20 13:33N 55°34' E 015°00'1412.2
2014-Nov-20 12:26N 55°39' E 015°23'34511.2
2014-Nov-19 05:31N 59°37' E 023°10'1112.0
2014-Nov-19 04:33N 59°40' E 023°32'1212.0
2014-Nov-19 03:33N 59°43' E 023°54'1311.9
2014-Nov-19 02:30N 59°47' E 024°18'1211.8
2014-Nov-19 01:27N 59°50' E 024°42'1312.0
2014-Nov-19 00:21N 59°52' E 025°08'911.7
2014-Nov-18 23:33N 59°54' E 025°26'1211.7
2014-Nov-18 22:33N 59°55' E 025°50'1211.8
2014-Nov-18 21:30N 59°59' E 026°13'1111.8
2014-Nov-18 20:33N 60°01' E 026°35'1211.8
2014-Nov-18 19:33N 59°60' E 026°58'1111.3
2014-Nov-18 18:33N 60°04' E 027°19'  
Track history (hours):
 
Tides and Currents Weather Stations Pressure Air Temp Water Temp Dewpoint Dewpoint Depression Visibility Wind Speed Wind Dir Waves Ship Positions

Minerva Concert

Last reported at 2014-Nov-25 21:33 UTC. Time now 2014-Nov-25 21:52 UTC.
Position N 51°24' E 003°09'.

Length 241 m; draft 9.2 m.

Type: Tanker. MMSI: 240110000.

Date/timePositionNaut miles runAvg speedWind from/ knotsBaromVisibWave heightAir tempDewpointWater temp
2014-Nov-25 21:33N 51°24' E 003°09'1010.2
2014-Nov-25 20:33N 51°22' E 002°53'9 8.8
2014-Nov-25 19:33N 51°24' E 002°39'0 0.5
2014-Nov-25 18:32N 51°24' E 002°38'0 0.1
2014-Nov-25 17:26N 51°24' E 002°38'0 0.1
2014-Nov-25 15:29N 51°24' E 002°39'0 0.0
2014-Nov-25 14:23N 51°24' E 002°38'0 0.1
2014-Nov-25 13:29N 51°24' E 002°38'0 0.1
2014-Nov-25 12:11N 51°24' E 002°38'0 0.0
2014-Nov-25 11:23N 51°24' E 002°38'0 0.0
2014-Nov-25 10:23N 51°24' E 002°38'0 0.0
2014-Nov-25 09:17N 51°24' E 002°38'0 0.0
2014-Nov-25 08:23N 51°24' E 002°38'0 0.1
2014-Nov-25 07:32N 51°24' E 002°38'0 0.0
2014-Nov-25 06:17N 51°24' E 002°38'0 0.1
2014-Nov-25 05:20N 51°24' E 002°38'1 0.6
2014-Nov-25 03:32N 51°23' E 002°39'1111.1
2014-Nov-25 02:31N 51°20' E 002°22'1111.4
2014-Nov-25 01:34N 51°21' E 002°04'9 8.9
2014-Nov-25 00:33N 51°30' E 001°59'1211.7
2014-Nov-24 23:33N 51°38' E 002°12'1312.7
2014-Nov-24 22:33N 51°47' E 002°26'45011.2
2014-Nov-23 06:33N 57°49' E 010°11'1212.3
2014-Nov-23 05:33N 57°49' E 010°33'9 9.2
2014-Nov-23 04:33N 57°45' E 010°49'1611.2
2014-Nov-23 03:08N 57°30' E 010°41'3 0.1
2014-Nov-21 22:22N 57°32' E 010°45'1012.0
2014-Nov-21 21:33N 57°31' E 011°03'1211.7
2014-Nov-21 20:33N 57°29' E 011°25'1212.1
2014-Nov-21 19:33N 57°17' E 011°33'7011.0
2014-Nov-21 13:13N 56°09' E 011°14'100 9.0
2014-Nov-21 02:11N 54°30' E 011°34'812.0
2014-Nov-21 01:33N 54°27' E 011°46'1211.7
2014-Nov-21 00:33N 54°26' E 012°07'8510.7
2014-Nov-20 16:33N 55°11' E 014°13'1212.1
2014-Nov-20 15:33N 55°20' E 014°26'1211.9
2014-Nov-20 14:33N 55°28' E 014°41'1212.2
2014-Nov-20 13:33N 55°34' E 015°00'1412.2
2014-Nov-20 12:26N 55°39' E 015°23'34511.2
2014-Nov-19 05:31N 59°37' E 023°10'1112.0
2014-Nov-19 04:33N 59°40' E 023°32'1212.0
2014-Nov-19 03:33N 59°43' E 023°54'1311.9
2014-Nov-19 02:30N 59°47' E 024°18'1211.8
2014-Nov-19 01:27N 59°50' E 024°42'1312.0
2014-Nov-19 00:21N 59°52' E 025°08'911.7
2014-Nov-18 23:33N 59°54' E 025°26'1211.7
2014-Nov-18 22:33N 59°55' E 025°50'1211.8
2014-Nov-18 21:30N 59°59' E 026°13'1111.8
2014-Nov-18 20:33N 60°01' E 026°35'1211.8
2014-Nov-18 19:33N 59°60' E 026°58'1111.3
2014-Nov-18 18:33N 60°04' E 027°19'  

Dump ship's entire track history